Flight Track Log - Related Links

Times and Time Zones

All times are in EDT time to prevent confusion due to time zone crossing. See the UCA596 flight status page for this flight to view local times or setup timezone preferences in your user account.

Time Position Orientation Groundspeed Altitude Reporting Facility
EDT Latitude Longitude Course Direction KTS MPH feet Rate Location/Type
Tue 01:02:43 PM 39.0000 -77.4500 360° North 159 183 2,900  Level Potomac TRACON
Tue 01:03:37 PM 39.0333 -77.4500 360° North 176 203 4,400 1,686 Climbing Potomac TRACON
Tue 01:04:44 PM 39.1000 -77.4667 349° North 188 216 6,300 1,636 Climbing Potomac TRACON
Tue 01:05:38 PM 39.1333 -77.4667 360° North 184 212 7,700 1,624 Climbing Potomac TRACON
Tue 01:07:34 PM 39.2319 -77.4833 353° North 190 219 10,900 1,551 Climbing Washington Center
Tue 01:08:36 PM 39.2903 -77.4847 359° North 190 219 12,300 1,073 Climbing Washington Center
Tue 01:09:37 PM 39.3447 -77.4836 North 203 234 13,100 1,160 Climbing Washington Center
Tue 01:10:35 PM 39.4136 -77.4747 North 219 252 14,600 1,475 Climbing Washington Center
Tue 01:11:35 PM 39.4656 -77.4706 North 214 246 16,000 1,162 Climbing Washington Center
Tue 01:13:46 PM 39.5883 -77.4578 North 207 238 18,300 947 Climbing New York Center
Tue 01:14:45 PM 39.6531 -77.4531 North 202 232 19,000 353 Climbing New York Center
Tue 01:15:45 PM 39.7156 -77.4536 360° North 227 261 19,000  Level New York Center
Tue 01:16:46 PM 39.7928 -77.4528 360° North 244 281 19,000  Level New York Center
Tue 01:17:46 PM 39.8575 -77.4508 North 254 292 19,000  Level New York Center
Tue 01:18:46 PM 39.9328 -77.4500 360° North 254 292 19,000  Level New York Center
Tue 01:19:45 PM 39.9953 -77.4506 360° North 254 292 19,000  Level New York Center
Tue 01:20:46 PM 40.0703 -77.4497 360° North 249 287 19,000  Level New York Center
Tue 01:21:45 PM 40.1311 -77.4472 North 249 287 19,000  Level New York Center
Tue 01:22:45 PM 40.2061 -77.4464 360° North 249 287 19,000  Level New York Center
Tue 01:23:46 PM 40.2647 -77.4439 North 238 274 19,000  Level New York Center
Tue 01:24:46 PM 40.3397 -77.4456 359° North 233 268 19,000  Level New York Center
Tue 01:25:45 PM 40.3981 -77.4431 North 233 268 19,000  Level New York Center
Tue 01:26:46 PM 40.4731 -77.4447 359° North 233 268 19,000  Level New York Center
Tue 01:27:45 PM 40.5336 -77.4425 North 233 268 19,000  Level New York Center
Tue 01:28:46 PM 40.6031 -77.3944 28° Northeast 238 274 19,000 -347 Level New York Center
Tue 01:29:46 PM 40.6708 -77.3381 32° Northeast 267 307 18,300 -600 Descending New York Center
Tue 01:30:46 PM 40.7278 -77.2889 33° Northeast 267 307 17,800 -353 Descending New York Center
Tue 01:31:45 PM 40.7933 -77.2347 32° Northeast 273 314 17,600 -403 Descending New York Center
Tue 01:32:45 PM 40.8631 -77.1756 33° Northeast 278 320 17,000 -298 Descending New York Center
Tue 01:33:46 PM 40.9289 -77.1156 35° Northeast 278 320 17,000  Level New York Center
Tue 01:34:45 PM 40.9942 -77.0614 32° Northeast 278 320 17,000  Level New York Center
Tue 01:35:45 PM 41.0597 -77.0042 33° Northeast 278 320 17,000  Level New York Center
Tue 01:36:46 PM 41.1233 -76.9464 34° Northeast 273 314 17,000  Level New York Center
Tue 01:37:45 PM 41.1886 -76.8917 32° Northeast 273 314 17,000  Level New York Center
Tue 01:38:45 PM 41.2539 -76.8369 32° Northeast 273 314 17,000  Level New York Center
Tue 01:39:46 PM 41.3172 -76.7792 34° Northeast 273 314 17,000  Level New York Center
Tue 01:40:45 PM 41.3847 -76.7217 33° Northeast 273 314 17,000  Level New York Center
Tue 01:41:46 PM 41.4547 -76.6586 34° Northeast 273 314 17,000  Level New York Center
Tue 01:42:46 PM 41.5200 -76.6006 34° Northeast 273 314 17,000 -50 Level New York Center
Tue 01:43:46 PM 41.5853 -76.5425 34° Northeast 273 314 16,900 -807 Descending New York Center
Tue 01:44:45 PM 41.6483 -76.4867 33° Northeast 283 326 15,400 -1,550 Descending New York Center
Tue 01:45:46 PM 41.7158 -76.4258 34° Northeast 297 342 13,800 -1,636 Descending New York Center
Tue 01:46:46 PM 41.7878 -76.3597 34° Northeast 292 336 12,100 -1,700 Descending New York Center
Tue 01:47:46 PM 41.8547 -76.3039 32° Northeast 287 330 10,400 -1,550 Descending New York Center
Tue 01:48:46 PM 41.9181 -76.2422 36° Northeast 282 325 9,000 -1,513 Descending New York Center
Tue 01:49:45 PM 41.9725 -76.1911 35° Northeast 272 313 7,400 -1,650 Descending New York Center
Tue 01:50:46 PM 42.0311 -76.1400 33° Northeast 260 299 5,700 -1,190 Descending New York Center
Tue 01:51:46 PM 42.0875 -76.0886 34° Northeast 235 270 5,000 -850 Descending New York Center
Tue 01:52:46 PM 42.1208 -76.0411 47° Northeast 203 234 4,000 -1,000 Descending New York Center
Tue 01:53:46 PM 42.1539 -75.9961 45° Northeast 182 209 3,000 -1,000 Descending New York Center
Tue 01:54:46 PM 42.1844 -75.9650 37° Northeast 157 181 2,000 -500 Descending New York Center
Tue 01:55:46 PM 42.2092 -75.9222 52° Northeast 157 181 2,000 3,500 Level New York Center
Tue 01:56:46 PM 42.2381 -75.8825 46° Northeast 157 181 9,000 3,500 Climbing New York Center
Tue 01:57:46 PM 42.2647 -75.8425 48° Northeast 157 181 9,000  Level New York Center
Tue 01:58:46 PM 42.2933 -75.8028 46° Northeast 157 181 9,000  Level New York Center
Tue 02:00:00 PM 42.2446 -75.8884 232° Southwest  Level FlightAware Approximate

Login

Don't have an account? Register now (free) for customized features, flight alerts, and more!